createdAt,value
2024-01-16T00:02:11.605Z,2.53
2024-01-16T00:04:38.710Z,2.58
2024-01-16T00:07:05.874Z,2.65
2024-01-16T00:09:36.074Z,2.67
2024-01-16T00:12:05.724Z,2.63
2024-01-16T00:14:37.568Z,3.70
2024-01-16T00:17:04.443Z,3.13
2024-01-16T00:19:31.007Z,3.20
2024-01-16T00:21:57.557Z,3.45
2024-01-16T00:24:24.331Z,3.40
2024-01-16T00:26:52.039Z,3.30
2024-01-16T00:29:18.691Z,3.20
2024-01-16T00:31:45.266Z,3.35
2024-01-16T00:34:11.807Z,3.47
2024-01-16T00:36:38.327Z,2.90
2024-01-16T00:39:04.852Z,3.60
2024-01-16T00:41:31.605Z,3.00
2024-01-16T00:43:58.149Z,3.30
2024-01-16T00:46:24.687Z,3.78
2024-01-16T00:48:51.326Z,3.28
2024-01-16T00:51:17.849Z,3.75
2024-01-16T00:53:45.225Z,3.50
2024-01-16T00:56:12.128Z,3.95
2024-01-16T00:58:38.904Z,4.05
2024-01-16T01:01:05.684Z,3.58
2024-01-16T01:03:32.336Z,3.72
2024-01-16T01:05:59.370Z,4.35
2024-01-16T01:08:25.979Z,3.65
2024-01-16T01:10:52.609Z,3.55
2024-01-16T01:13:19.257Z,3.72
2024-01-16T01:15:45.867Z,4.28
2024-01-16T01:18:12.492Z,4.13
2024-01-16T01:20:39.081Z,3.88
2024-01-16T01:23:05.617Z,5.00
2024-01-16T01:25:32.139Z,4.13
2024-01-16T01:27:58.673Z,4.32
2024-01-16T01:30:25.375Z,4.22
2024-01-16T01:32:52.164Z,4.97
2024-01-16T01:35:20.809Z,4.60
2024-01-16T01:37:47.535Z,5.03
2024-01-16T01:40:16.714Z,4.72
2024-01-16T01:42:43.855Z,5.45
2024-01-16T01:45:11.423Z,4.97
2024-01-16T01:47:45.005Z,5.70
2024-01-16T01:50:12.200Z,5.55
2024-01-16T01:52:41.654Z,5.22
2024-01-16T01:55:14.564Z,5.13
2024-01-16T01:57:43.800Z,5.13
2024-01-16T02:00:11.065Z,4.85
2024-01-16T02:02:37.693Z,5.25
2024-01-16T02:05:04.891Z,5.13
2024-01-16T02:07:33.971Z,4.85
2024-01-16T02:10:01.560Z,5.03
2024-01-16T02:12:28.297Z,4.72
2024-01-16T02:14:54.766Z,4.93
2024-01-16T02:17:21.294Z,4.30
2024-01-16T02:19:47.783Z,4.47
2024-01-16T02:22:20.819Z,4.90
2024-01-16T02:24:47.660Z,5.35
2024-01-16T02:27:14.319Z,4.63
2024-01-16T02:29:44.429Z,5.00
2024-01-16T02:32:13.975Z,5.00
2024-01-16T02:34:40.794Z,5.40
2024-01-16T02:37:07.320Z,5.82
2024-01-16T02:39:33.867Z,5.43
2024-01-16T02:42:00.354Z,5.25
2024-01-16T02:44:26.968Z,5.38
2024-01-16T02:46:53.495Z,5.28
2024-01-16T02:49:20.056Z,5.60
2024-01-16T02:51:46.581Z,5.13
2024-01-16T02:54:13.189Z,5.40
2024-01-16T02:56:39.803Z,5.50
2024-01-16T02:59:06.692Z,5.25
2024-01-16T03:01:33.244Z,4.53
2024-01-16T03:03:59.766Z,5.45
2024-01-16T03:06:26.584Z,4.43
2024-01-16T03:08:53.430Z,4.53
2024-01-16T03:11:20.047Z,5.55
2024-01-16T03:13:46.762Z,5.70
2024-01-16T03:16:13.604Z,5.38
2024-01-16T03:18:40.220Z,5.95
2024-01-16T03:21:07.421Z,5.28
2024-01-16T03:23:34.159Z,4.82
2024-01-16T03:26:00.702Z,5.40
2024-01-16T03:28:27.193Z,5.15
2024-01-16T03:30:55.012Z,5.78
2024-01-16T03:33:21.831Z,5.53
2024-01-16T03:35:48.758Z,5.43
2024-01-16T03:38:15.391Z,6.10
2024-01-16T03:40:41.978Z,5.30
2024-01-16T03:43:08.928Z,4.78
2024-01-16T03:45:35.445Z,5.53
2024-01-16T03:48:04.527Z,5.43
2024-01-16T03:50:31.260Z,5.35
2024-01-16T03:52:57.807Z,5.93
2024-01-16T03:55:24.279Z,6.03
2024-01-16T03:57:52.205Z,4.50
2024-01-16T04:00:18.849Z,5.95
2024-01-16T04:02:45.508Z,5.38
2024-01-16T04:05:12.257Z,5.95
2024-01-16T04:07:38.841Z,5.65
2024-01-16T04:10:07.710Z,4.85
2024-01-16T04:12:34.192Z,6.05
2024-01-16T04:15:00.734Z,5.50
2024-01-16T04:17:27.353Z,5.30
2024-01-16T04:19:53.841Z,4.95
2024-01-16T04:22:20.348Z,5.97
2024-01-16T04:24:48.006Z,4.70
2024-01-16T04:27:14.613Z,5.38
2024-01-16T04:29:41.158Z,5.20
2024-01-16T04:32:07.726Z,4.38
2024-01-16T04:34:35.526Z,4.30
2024-01-16T04:37:02.133Z,5.35
2024-01-16T04:39:28.610Z,5.50
2024-01-16T04:41:55.278Z,5.15
2024-01-16T04:44:21.846Z,6.75
2024-01-16T04:46:48.632Z,6.20
2024-01-16T04:49:15.171Z,6.68
2024-01-16T04:51:41.686Z,6.35
2024-01-16T04:54:08.497Z,6.80
2024-01-16T04:56:35.212Z,7.10
2024-01-16T04:59:01.965Z,6.90
2024-01-16T05:01:28.480Z,6.22
2024-01-16T05:03:55.898Z,7.32
2024-01-16T05:06:22.678Z,7.30
2024-01-16T05:08:49.822Z,7.32
2024-01-16T05:11:16.494Z,8.02
2024-01-16T05:13:43.102Z,8.23
2024-01-16T05:16:10.534Z,8.38
2024-01-16T05:18:37.233Z,9.27
2024-01-16T05:21:05.710Z,7.90
2024-01-16T05:23:32.277Z,8.80
2024-01-16T05:25:59.036Z,8.30
2024-01-16T05:28:25.673Z,8.82
2024-01-16T05:30:52.319Z,9.93
2024-01-16T05:33:19.027Z,9.13
2024-01-16T05:35:45.616Z,8.90
2024-01-16T05:38:13.570Z,10.32
2024-01-16T05:40:40.994Z,9.98
2024-01-16T05:43:07.547Z,8.30
2024-01-16T05:45:34.092Z,10.02
2024-01-16T05:48:00.840Z,9.07
2024-01-16T05:50:27.689Z,8.82
2024-01-16T05:52:54.503Z,9.43
2024-01-16T05:55:22.513Z,9.10
2024-01-16T05:57:49.063Z,9.35
2024-01-16T06:00:16.008Z,9.93
2024-01-16T06:02:42.522Z,9.63
2024-01-16T06:05:09.247Z,8.10
2024-01-16T06:07:35.825Z,8.73
2024-01-16T06:10:03.586Z,8.82
2024-01-16T06:12:30.652Z,9.25
2024-01-16T06:14:59.070Z,8.45
2024-01-16T06:17:25.689Z,8.45
2024-01-16T06:19:52.186Z,8.52
2024-01-16T06:22:18.688Z,9.88
2024-01-16T06:24:45.174Z,8.40
2024-01-16T06:27:11.650Z,9.20
2024-01-16T06:29:38.184Z,8.98
2024-01-16T06:32:05.439Z,8.85
2024-01-16T06:34:32.072Z,9.02
2024-01-16T06:36:58.640Z,9.10
2024-01-16T06:39:25.111Z,7.15
2024-01-16T06:41:51.774Z,8.25
2024-01-16T06:44:20.184Z,8.32
2024-01-16T06:46:47.008Z,7.80
2024-01-16T06:49:13.768Z,9.48
2024-01-16T06:51:40.320Z,8.10
2024-01-16T06:54:06.862Z,7.22
2024-01-16T06:56:33.487Z,7.78
2024-01-16T06:59:00.017Z,7.22
2024-01-16T07:01:27.810Z,7.15
2024-01-16T07:03:54.361Z,7.47
2024-01-16T07:06:20.978Z,6.93
2024-01-16T07:08:47.732Z,8.05
2024-01-16T07:11:14.985Z,7.18
2024-01-16T07:13:42.495Z,7.55
2024-01-16T07:16:12.578Z,7.43
2024-01-16T07:18:39.559Z,7.82
2024-01-16T07:21:17.188Z,6.80
2024-01-16T07:23:43.702Z,7.13
2024-01-16T07:26:10.258Z,7.05
2024-01-16T07:28:36.753Z,7.22
2024-01-16T07:31:03.354Z,8.48
2024-01-16T07:33:30.000Z,7.50
2024-01-16T07:35:56.650Z,6.25
2024-01-16T07:38:23.546Z,6.32
2024-01-16T07:40:50.149Z,7.18
2024-01-16T07:43:16.922Z,6.95
2024-01-16T07:45:43.428Z,8.20
2024-01-16T07:48:09.964Z,7.32
2024-01-16T07:50:36.534Z,7.55
2024-01-16T07:53:03.156Z,7.22
2024-01-16T07:55:29.655Z,7.10
2024-01-16T07:57:56.562Z,7.07
2024-01-16T08:00:23.121Z,6.88
2024-01-16T08:02:50.108Z,7.18
2024-01-16T08:05:17.024Z,7.03
2024-01-16T08:07:44.649Z,7.38
2024-01-16T08:10:11.188Z,7.43
2024-01-16T08:12:38.441Z,7.65
2024-01-16T08:15:06.368Z,6.80
2024-01-16T08:17:32.884Z,6.95
2024-01-16T08:19:59.397Z,7.15
2024-01-16T08:22:25.932Z,6.85
2024-01-16T08:24:52.483Z,7.18
2024-01-16T08:27:20.619Z,7.30
2024-01-16T08:29:49.539Z,6.85
2024-01-16T08:32:16.168Z,7.40
2024-01-16T08:34:42.889Z,7.25
2024-01-16T08:37:10.402Z,8.25
2024-01-16T08:39:37.281Z,7.70
2024-01-16T08:42:04.239Z,7.15
2024-01-16T08:44:30.755Z,6.35
2024-01-16T08:46:58.766Z,8.10
2024-01-16T08:49:25.262Z,7.40
2024-01-16T08:51:51.935Z,7.72
2024-01-16T08:54:18.457Z,7.20
2024-01-16T08:56:44.973Z,7.18
2024-01-16T08:59:11.599Z,8.32
2024-01-16T09:01:38.285Z,7.50
2024-01-16T09:04:04.892Z,7.93
2024-01-16T09:06:31.611Z,7.40
2024-01-16T09:08:58.206Z,7.55
2024-01-16T09:11:24.709Z,7.05
2024-01-16T09:13:51.229Z,6.68
2024-01-16T09:16:17.838Z,6.93
2024-01-16T09:18:44.599Z,7.57
2024-01-16T09:21:11.192Z,7.85
2024-01-16T09:23:37.665Z,7.30
2024-01-16T09:26:04.280Z,7.30
2024-01-16T09:28:30.754Z,7.63
2024-01-16T09:30:57.357Z,7.88
2024-01-16T09:33:26.993Z,7.32
2024-01-16T09:35:53.817Z,7.77
2024-01-16T09:38:20.494Z,7.57
2024-01-16T09:40:51.906Z,7.03
2024-01-16T09:43:18.491Z,7.53
2024-01-16T09:45:48.520Z,8.57
2024-01-16T09:48:15.854Z,7.90
2024-01-16T09:50:42.469Z,6.90
2024-01-16T09:53:09.043Z,7.15
2024-01-16T09:55:35.600Z,7.30
2024-01-16T09:58:04.670Z,7.28
2024-01-16T10:00:31.867Z,6.45
2024-01-16T10:03:00.692Z,7.15
2024-01-16T10:05:27.666Z,7.22
2024-01-16T10:07:55.545Z,7.03
2024-01-16T10:10:30.359Z,7.93
2024-01-16T10:13:05.583Z,6.88
2024-01-16T10:15:32.654Z,9.35
2024-01-16T10:18:00.860Z,6.95
2024-01-16T10:20:35.544Z,7.15
2024-01-16T10:23:04.605Z,7.03
2024-01-16T10:25:31.130Z,6.38
2024-01-16T10:28:06.021Z,7.00
2024-01-16T10:30:32.682Z,6.75
2024-01-16T10:33:14.653Z,5.55
2024-01-16T10:35:41.257Z,8.63
2024-01-16T10:38:07.825Z,6.93
2024-01-16T10:40:35.301Z,5.90
2024-01-16T10:43:04.450Z,5.22
2024-01-16T10:45:31.747Z,4.47
2024-01-16T10:48:04.989Z,4.50
2024-01-16T10:50:32.474Z,4.78
2024-01-16T10:53:02.252Z,5.03
2024-01-16T10:55:30.775Z,4.70
2024-01-16T10:57:57.916Z,5.18
2024-01-16T11:00:25.750Z,5.13
2024-01-16T11:03:08.588Z,4.63
2024-01-16T11:05:36.861Z,4.70
2024-01-16T11:08:06.781Z,4.32
2024-01-16T11:10:36.134Z,4.28
2024-01-16T11:13:03.961Z,4.00
2024-01-16T11:15:30.657Z,3.90
2024-01-16T11:17:58.749Z,3.88
2024-01-16T11:20:41.292Z,3.75
2024-01-16T11:23:14.005Z,3.78
2024-01-16T11:25:40.634Z,3.58
2024-01-16T11:28:16.882Z,3.42
2024-01-16T11:30:45.124Z,3.47
2024-01-16T11:33:33.628Z,2.58
2024-01-16T11:36:01.279Z,2.63
2024-01-16T11:38:28.293Z,2.53
2024-01-16T11:40:55.278Z,3.13
2024-01-16T11:43:34.153Z,2.10
2024-01-16T11:46:02.219Z,2.35
2024-01-16T11:48:28.981Z,3.45
2024-01-16T11:50:55.895Z,2.35
2024-01-16T11:53:31.683Z,2.53
2024-01-16T11:56:38.151Z,2.38
2024-01-16T11:59:30.457Z,1.90
2024-01-16T12:02:02.824Z,1.95
2024-01-16T12:04:30.683Z,2.35
2024-01-16T12:07:01.864Z,1.85
2024-01-16T12:09:29.487Z,1.88
2024-01-16T12:12:03.903Z,1.55
2024-01-16T12:14:31.533Z,1.42
2024-01-16T12:17:14.785Z,1.55
2024-01-16T12:19:43.636Z,2.20
2024-01-16T12:22:11.288Z,1.10
2024-01-16T12:24:38.813Z,1.00
2024-01-16T12:27:06.336Z,1.50
2024-01-16T12:29:33.312Z,1.10
2024-01-16T12:32:10.820Z,1.30
2024-01-16T12:34:46.867Z,2.20
2024-01-16T12:37:13.938Z,1.35
2024-01-16T12:39:42.706Z,2.05
2024-01-16T12:42:11.178Z,1.55
2024-01-16T12:44:37.732Z,1.85
2024-01-16T12:47:04.485Z,1.70
2024-01-16T12:49:31.608Z,1.80
2024-01-16T12:52:22.035Z,0.88
2024-01-16T12:57:22.697Z,1.23
2024-01-16T12:59:50.406Z,1.83
2024-01-16T13:02:25.684Z,1.10
2024-01-16T13:05:04.506Z,0.95
2024-01-16T13:07:32.953Z,3.42
2024-01-16T13:10:14.090Z,1.83
2024-01-16T13:12:40.832Z,3.92
2024-01-16T13:15:07.908Z,2.05
2024-01-16T13:17:38.201Z,0.85
2024-01-16T13:20:08.673Z,3.00
2024-01-16T13:22:43.328Z,2.28
2024-01-16T13:25:12.960Z,1.92
2024-01-16T13:27:39.584Z,1.92
2024-01-16T13:30:07.220Z,1.00
2024-01-16T13:32:37.859Z,1.38
2024-01-16T13:35:08.899Z,1.77
2024-01-16T13:40:09.931Z,2.85
2024-01-16T13:42:36.710Z,3.10
2024-01-16T13:45:05.257Z,2.78
2024-01-16T13:47:32.118Z,2.45
2024-01-16T13:49:58.747Z,3.58
2024-01-16T13:52:27.241Z,1.75
2024-01-16T13:54:55.338Z,2.10
2024-01-16T13:57:22.048Z,3.88
2024-01-16T13:59:48.756Z,0.90
2024-01-16T14:02:15.353Z,2.90
2024-01-16T14:04:41.899Z,2.63
2024-01-16T14:07:12.597Z,1.08
2024-01-16T14:09:43.120Z,1.13
2024-01-16T14:12:10.703Z,1.02
2024-01-16T14:14:39.281Z,1.02
2024-01-16T14:17:06.196Z,0.80
2024-01-16T14:19:35.233Z,1.33
2024-01-16T14:22:02.052Z,0.60
2024-01-16T14:24:28.642Z,1.20
2024-01-16T14:26:57.734Z,1.10
2024-01-16T14:29:24.370Z,2.30
2024-01-16T14:31:51.100Z,2.53
2024-01-16T14:34:19.227Z,2.33
2024-01-16T14:36:46.814Z,2.60
2024-01-16T14:39:22.854Z,2.55
2024-01-16T14:41:49.429Z,1.38
2024-01-16T14:44:16.054Z,0.80
2024-01-16T14:46:47.178Z,1.00
2024-01-16T14:49:15.493Z,0.90
2024-01-16T14:51:42.430Z,0.90
2024-01-16T14:54:10.014Z,1.05
2024-01-16T14:56:36.781Z,0.90
2024-01-16T14:59:04.002Z,1.40
2024-01-16T15:01:30.528Z,1.00
2024-01-16T15:03:58.646Z,1.55
2024-01-16T15:06:27.816Z,1.65
2024-01-16T15:08:54.969Z,2.17
2024-01-16T15:11:22.059Z,2.33
2024-01-16T15:13:50.398Z,1.95
2024-01-16T15:16:17.633Z,2.17
2024-01-16T15:18:44.675Z,1.83
2024-01-16T15:21:11.784Z,2.28
2024-01-16T15:23:38.448Z,1.90
2024-01-16T15:26:05.896Z,4.10
2024-01-16T15:28:33.631Z,3.15
2024-01-16T15:31:07.346Z,3.33
2024-01-16T15:33:36.292Z,2.85
2024-01-16T15:36:04.342Z,2.80
2024-01-16T15:38:30.936Z,2.50
2024-01-16T15:40:57.434Z,2.92
2024-01-16T15:43:23.991Z,2.30
2024-01-16T15:45:50.652Z,2.47
2024-01-16T15:48:17.226Z,2.65
2024-01-16T15:50:43.848Z,2.58
2024-01-16T15:53:10.733Z,2.53
2024-01-16T15:55:37.271Z,3.10
2024-01-16T15:58:05.235Z,2.10
2024-01-16T16:00:32.187Z,2.70
2024-01-16T16:03:00.708Z,2.40
2024-01-16T16:05:27.467Z,2.50
2024-01-16T16:07:54.057Z,2.25
2024-01-16T16:10:20.623Z,2.03
2024-01-16T16:12:47.649Z,2.60
2024-01-16T16:15:14.123Z,2.60
2024-01-16T16:17:40.644Z,4.32
2024-01-16T16:20:10.452Z,2.83
2024-01-16T16:22:39.491Z,3.50
2024-01-16T16:25:06.860Z,2.28
2024-01-16T16:27:33.392Z,2.70
2024-01-16T16:29:59.996Z,3.08
2024-01-16T16:32:26.814Z,2.47
2024-01-16T16:34:54.283Z,3.58
2024-01-16T16:37:21.979Z,4.00
2024-01-16T16:39:48.694Z,4.90
2024-01-16T16:42:17.672Z,5.50
2024-01-16T16:44:45.622Z,4.90
2024-01-16T16:47:12.382Z,5.50
2024-01-16T16:49:38.970Z,6.60
2024-01-16T16:52:05.733Z,5.70
2024-01-16T16:54:32.413Z,6.05
2024-01-16T16:56:59.096Z,5.88
2024-01-16T16:59:25.846Z,6.40
2024-01-16T17:01:53.229Z,6.50
2024-01-16T17:04:19.961Z,5.60
2024-01-16T17:06:46.623Z,6.50
2024-01-16T17:09:13.296Z,6.78
2024-01-16T17:11:40.654Z,7.05
2024-01-16T17:14:07.217Z,6.07
2024-01-16T17:16:33.817Z,6.47
2024-01-16T17:19:00.556Z,6.88
2024-01-16T17:21:27.260Z,5.85
2024-01-16T17:23:54.133Z,6.68
2024-01-16T17:26:20.822Z,5.82
2024-01-16T17:28:47.567Z,5.57
2024-01-16T17:31:14.120Z,5.97
2024-01-16T17:33:40.788Z,5.68
2024-01-16T17:36:11.477Z,6.95
2024-01-16T17:41:05.781Z,6.28
2024-01-16T17:43:32.448Z,5.88
2024-01-16T17:45:59.141Z,6.63
2024-01-16T17:48:26.717Z,7.13
2024-01-16T17:50:53.480Z,6.82
2024-01-16T17:53:20.524Z,7.05
2024-01-16T17:55:47.661Z,6.00
2024-01-16T17:58:16.664Z,6.93
2024-01-16T18:00:43.305Z,7.13
2024-01-16T18:03:24.091Z,7.55
2024-01-16T18:06:00.442Z,7.65
2024-01-16T18:08:27.218Z,7.93
2024-01-16T18:10:55.620Z,8.52
2024-01-16T18:13:23.254Z,10.75
2024-01-16T18:15:50.009Z,6.90
2024-01-16T18:18:18.273Z,8.75
2024-01-16T18:20:45.035Z,8.63
2024-01-16T18:23:11.958Z,10.00
2024-01-16T18:25:38.516Z,12.00
2024-01-16T18:28:05.456Z,7.25
2024-01-16T18:30:34.294Z,8.60
2024-01-16T18:33:02.036Z,8.82
2024-01-16T18:35:29.460Z,9.98
2024-01-16T18:37:56.135Z,9.05
2024-01-16T18:40:24.491Z,11.63
2024-01-16T18:42:51.259Z,11.32
2024-01-16T18:45:17.820Z,12.20
2024-01-16T18:47:45.792Z,12.10
2024-01-16T18:50:12.952Z,14.30
2024-01-16T18:52:41.022Z,9.15
2024-01-16T18:55:12.085Z,8.60
2024-01-16T18:57:40.499Z,9.05
2024-01-16T19:00:15.531Z,9.85
2024-01-16T19:02:49.175Z,9.65
2024-01-16T19:05:16.909Z,10.07
2024-01-16T19:07:44.557Z,10.48
2024-01-16T19:10:13.758Z,9.52
2024-01-16T19:12:47.833Z,9.82
2024-01-16T19:15:18.493Z,10.43
2024-01-16T19:17:51.346Z,10.23
2024-01-16T19:20:22.967Z,9.85
2024-01-16T19:22:56.103Z,11.38
2024-01-16T19:25:26.231Z,13.25
2024-01-16T19:27:53.270Z,10.02
2024-01-16T19:30:20.695Z,12.75
2024-01-16T19:32:49.610Z,12.77
2024-01-16T19:35:17.952Z,10.75
2024-01-16T19:37:45.455Z,12.15
2024-01-16T19:40:13.602Z,9.75
2024-01-16T19:42:40.723Z,9.90
2024-01-16T19:45:10.324Z,9.77
2024-01-16T19:47:40.493Z,10.02
2024-01-16T19:50:10.829Z,10.05
2024-01-16T19:52:37.331Z,10.52
2024-01-16T19:55:06.791Z,10.77
2024-01-16T19:57:33.786Z,7.97
2024-01-16T20:00:02.611Z,8.85
2024-01-16T20:02:29.303Z,9.63
2024-01-16T20:04:55.952Z,12.05
2024-01-16T20:07:22.442Z,10.20
2024-01-16T20:09:48.942Z,12.95
2024-01-16T20:12:15.530Z,10.00
2024-01-16T20:14:42.777Z,11.40
2024-01-16T20:17:09.293Z,10.30
2024-01-16T20:19:35.836Z,8.55
2024-01-16T20:22:02.386Z,10.20
2024-01-16T20:24:30.126Z,11.63
2024-01-16T20:26:56.637Z,10.77
2024-01-16T20:29:23.219Z,10.45
2024-01-16T20:31:49.754Z,9.13
2024-01-16T20:34:16.664Z,9.73
2024-01-16T20:36:43.433Z,9.93
2024-01-16T20:39:10.664Z,9.73
2024-01-16T20:41:37.164Z,10.55
2024-01-16T20:44:04.210Z,9.63
2024-01-16T20:46:30.802Z,11.15
2024-01-16T20:48:57.474Z,9.75
2024-01-16T20:51:26.142Z,9.15
2024-01-16T20:53:53.111Z,11.00
2024-01-16T20:56:19.751Z,10.38
2024-01-16T20:58:46.285Z,10.00
2024-01-16T21:01:12.803Z,9.48
2024-01-16T21:03:39.674Z,10.27
2024-01-16T21:06:09.499Z,11.13
2024-01-16T21:08:37.060Z,10.10
2024-01-16T21:11:03.718Z,9.25
2024-01-16T21:13:30.846Z,10.20
2024-01-16T21:16:00.173Z,10.68
2024-01-16T21:18:32.134Z,10.00
2024-01-16T21:20:58.984Z,10.57
2024-01-16T21:23:25.500Z,9.68
2024-01-16T21:25:52.000Z,9.45
2024-01-16T21:28:18.775Z,9.43
2024-01-16T21:30:45.396Z,10.00
2024-01-16T21:33:13.655Z,9.80
2024-01-16T21:35:42.481Z,8.90
2024-01-16T21:38:09.113Z,10.27
2024-01-16T21:40:36.235Z,9.55
2024-01-16T21:43:04.576Z,9.07
2024-01-16T21:45:31.973Z,8.80
2024-01-16T21:47:58.647Z,10.13
2024-01-16T21:50:33.653Z,10.35
2024-01-16T21:53:04.910Z,9.93
2024-01-16T21:55:31.503Z,8.90
2024-01-16T21:57:58.110Z,9.93
2024-01-16T22:00:24.713Z,10.18
2024-01-16T22:02:57.764Z,10.30
2024-01-16T22:05:26.643Z,9.63
2024-01-16T22:07:53.241Z,9.88
2024-01-16T22:10:19.711Z,9.77
2024-01-16T22:12:46.654Z,8.68
2024-01-16T22:15:13.627Z,10.38
2024-01-16T22:17:40.359Z,10.13
2024-01-16T22:20:07.581Z,10.43
2024-01-16T22:22:34.217Z,11.05
2024-01-16T22:25:00.820Z,10.63
2024-01-16T22:27:27.365Z,8.60
2024-01-16T22:29:53.936Z,10.43
2024-01-16T22:32:22.116Z,9.93
2024-01-16T22:34:48.838Z,11.00
2024-01-16T22:37:15.579Z,9.93
2024-01-16T22:39:44.986Z,10.90
2024-01-16T22:42:11.529Z,10.90
2024-01-16T22:44:39.705Z,9.57
2024-01-16T22:47:06.774Z,9.52
2024-01-16T22:49:36.357Z,10.07
2024-01-16T22:52:03.241Z,11.27
2024-01-16T22:54:29.740Z,11.23
2024-01-16T22:56:56.294Z,10.40
2024-01-16T22:59:22.788Z,9.05
2024-01-16T23:01:49.378Z,12.52
2024-01-16T23:04:15.967Z,11.10
2024-01-16T23:06:42.538Z,11.18
2024-01-16T23:09:10.631Z,11.77
2024-01-16T23:11:37.186Z,10.30
2024-01-16T23:14:03.732Z,10.55
2024-01-16T23:16:30.303Z,11.20
2024-01-16T23:18:57.207Z,10.02
2024-01-16T23:21:25.165Z,10.45
2024-01-16T23:23:54.780Z,9.50
2024-01-16T23:26:23.457Z,11.17
2024-01-16T23:28:50.096Z,11.15
2024-01-16T23:31:17.537Z,11.25
2024-01-16T23:33:44.395Z,10.90
2024-01-16T23:36:11.134Z,10.48
2024-01-16T23:38:39.964Z,9.88
2024-01-16T23:41:10.197Z,11.63
2024-01-16T23:43:38.153Z,11.73
2024-01-16T23:46:08.478Z,10.98
2024-01-16T23:48:35.388Z,11.25
2024-01-16T23:51:03.226Z,10.15
2024-01-16T23:53:30.326Z,12.07
2024-01-16T23:55:57.578Z,10.75
2024-01-16T23:58:25.488Z,11.88
